createdAt,value
2023-05-25T00:00:31.383Z,99329.44
2023-05-25T00:02:59.473Z,99314.41
2023-05-25T00:05:27.768Z,99318.78
2023-05-25T00:07:55.479Z,99334.41
2023-05-25T00:10:23.985Z,99326.91
2023-05-25T00:12:51.135Z,99319.47
2023-05-25T00:15:18.024Z,99323.47
2023-05-25T00:17:48.859Z,99326.31
2023-05-25T00:20:16.102Z,99322.66
2023-05-25T00:22:44.964Z,99318.44
2023-05-25T00:25:12.705Z,99317.75
2023-05-25T00:27:39.524Z,99318.69
2023-05-25T00:30:07.666Z,99324.66
2023-05-25T00:32:34.827Z,99321.88
2023-05-25T00:35:01.764Z,99319.47
2023-05-25T00:37:28.656Z,99316.25
2023-05-25T00:39:55.568Z,99311.38
2023-05-25T00:42:23.539Z,99318.09
2023-05-25T00:44:50.622Z,99293.66
2023-05-25T00:47:17.788Z,99313.75
2023-05-25T00:49:44.647Z,99307.88
2023-05-25T00:52:13.471Z,99306.09
2023-05-25T00:54:40.474Z,99291.72
2023-05-25T00:57:08.590Z,99307.78
2023-05-25T00:59:42.309Z,99305.00
2023-05-25T01:02:11.909Z,99298.13
2023-05-25T01:04:47.563Z,99295.53
2023-05-25T01:07:23.200Z,99298.19
2023-05-25T01:10:06.736Z,99283.19
2023-05-25T01:12:38.897Z,99297.28
2023-05-25T01:15:07.075Z,99292.94
2023-05-25T01:17:38.156Z,99286.88
2023-05-25T01:20:11.790Z,99275.38
2023-05-25T01:22:55.992Z,99285.34
2023-05-25T01:25:35.976Z,99292.25
2023-05-25T01:28:18.730Z,99293.50
2023-05-25T01:30:49.244Z,99287.53
2023-05-25T01:33:21.510Z,99291.31
2023-05-25T01:35:51.124Z,99280.50
2023-05-25T01:38:18.325Z,99294.88
2023-05-25T01:40:45.513Z,99290.75
2023-05-25T01:43:12.895Z,99294.69
2023-05-25T01:45:40.034Z,99293.88
2023-05-25T01:48:29.023Z,99294.41
2023-05-25T01:51:02.674Z,99294.25
2023-05-25T01:54:05.916Z,99286.50
2023-05-25T01:56:33.792Z,99275.47
2023-05-25T01:59:02.639Z,99285.22
2023-05-25T02:01:30.576Z,99295.00
2023-05-25T02:03:57.884Z,99291.06
2023-05-25T02:06:24.715Z,99291.88
2023-05-25T02:08:51.506Z,99288.19
2023-05-25T02:11:18.361Z,99293.16
2023-05-25T02:13:45.166Z,99287.84
2023-05-25T02:16:12.073Z,99280.81
2023-05-25T02:18:39.109Z,99275.44
2023-05-25T02:21:06.001Z,99277.59
2023-05-25T02:23:32.812Z,99274.44
2023-05-25T02:25:59.640Z,99277.44
2023-05-25T02:28:26.434Z,99271.34
2023-05-25T02:30:53.419Z,99275.44
2023-05-25T02:33:20.304Z,99271.94
2023-05-25T02:35:47.165Z,99267.50
2023-05-25T02:38:14.309Z,99273.28
2023-05-25T02:40:41.134Z,99278.50
2023-05-25T02:43:08.027Z,99263.69
2023-05-25T02:45:34.899Z,99267.41
2023-05-25T02:48:01.788Z,99275.88
2023-05-25T02:50:28.627Z,99280.81
2023-05-25T02:52:55.449Z,99276.47
2023-05-25T02:55:22.944Z,99283.19
2023-05-25T02:57:49.795Z,99274.94
2023-05-25T03:00:17.178Z,99265.69
2023-05-25T03:02:46.897Z,99287.72
2023-05-25T03:05:13.754Z,99287.72
2023-05-25T03:07:41.125Z,99286.03
2023-05-25T03:10:08.344Z,99292.91
2023-05-25T03:12:35.153Z,99294.75
2023-05-25T03:15:01.984Z,99295.25
2023-05-25T03:17:28.905Z,99296.25
2023-05-25T03:19:56.032Z,99300.28
2023-05-25T03:22:22.894Z,99289.28
2023-05-25T03:24:50.156Z,99293.03
2023-05-25T03:27:17.130Z,99293.28
2023-05-25T03:29:43.946Z,99292.69
2023-05-25T03:32:10.839Z,99301.44
2023-05-25T03:34:37.856Z,99288.50
2023-05-25T03:37:04.902Z,99282.19
2023-05-25T03:39:31.875Z,99261.41
2023-05-25T03:41:58.780Z,99287.03
2023-05-25T03:44:25.763Z,99282.06
2023-05-25T03:46:52.628Z,99285.75
2023-05-25T03:49:19.486Z,99258.69
2023-05-25T03:51:46.311Z,99287.56
2023-05-25T03:54:13.397Z,99295.22
2023-05-25T03:56:40.312Z,99288.59
2023-05-25T03:59:07.138Z,99298.91
2023-05-25T04:01:33.976Z,99299.97
2023-05-25T04:04:01.064Z,99302.56
2023-05-25T04:06:29.920Z,99292.69
2023-05-25T04:08:57.998Z,99313.16
2023-05-25T04:11:25.662Z,99314.06
2023-05-25T04:13:52.561Z,99306.59
2023-05-25T04:16:19.504Z,99307.81
2023-05-25T04:18:46.432Z,99312.03
2023-05-25T04:21:13.247Z,99305.28
2023-05-25T04:23:40.870Z,99304.34
2023-05-25T04:26:10.243Z,99301.84
2023-05-25T04:28:37.184Z,99320.28
2023-05-25T04:31:05.326Z,99311.03
2023-05-25T04:33:34.211Z,99313.25
2023-05-25T04:36:01.144Z,99306.69
2023-05-25T04:38:28.005Z,99315.88
2023-05-25T04:40:54.970Z,99318.50
2023-05-25T04:43:21.779Z,99329.91
2023-05-25T04:45:48.699Z,99317.09
2023-05-25T04:48:15.552Z,99317.78
2023-05-25T04:50:42.812Z,99316.06
2023-05-25T04:53:10.072Z,99321.97
2023-05-25T04:55:36.949Z,99327.16
2023-05-25T04:58:05.798Z,99333.22
2023-05-25T05:00:34.353Z,99341.09
2023-05-25T05:03:01.342Z,99341.22
2023-05-25T05:05:29.247Z,99338.63
2023-05-25T05:07:56.063Z,99336.03
2023-05-25T05:10:22.941Z,99323.41
2023-05-25T05:12:49.757Z,99334.19
2023-05-25T05:15:16.849Z,99343.53
2023-05-25T05:17:43.727Z,99348.47
2023-05-25T05:20:10.988Z,99347.25
2023-05-25T05:22:38.590Z,99345.50
2023-05-25T05:25:06.097Z,99343.75
2023-05-25T05:27:33.036Z,99331.03
2023-05-25T05:29:59.898Z,99331.72
2023-05-25T05:32:26.946Z,99348.38
2023-05-25T05:34:53.778Z,99355.44
2023-05-25T05:37:20.772Z,99357.94
2023-05-25T05:39:47.620Z,99361.22
2023-05-25T05:42:14.441Z,99359.31
2023-05-25T05:44:41.335Z,99360.13
2023-05-25T05:47:08.181Z,99351.56
2023-05-25T05:49:35.079Z,99363.19
2023-05-25T05:52:03.767Z,99371.59
2023-05-25T05:54:30.784Z,99373.28
2023-05-25T05:56:57.637Z,99363.03
2023-05-25T05:59:24.583Z,99373.09
2023-05-25T06:01:51.410Z,99376.31
2023-05-25T06:04:19.365Z,99374.63
2023-05-25T06:06:46.240Z,99382.09
2023-05-25T06:09:13.672Z,99389.84
2023-05-25T06:11:40.578Z,99370.03
2023-05-25T06:14:07.404Z,99384.41
2023-05-25T06:16:34.329Z,99374.66
2023-05-25T06:19:01.331Z,99372.66
2023-05-25T06:21:28.313Z,99368.31
2023-05-25T06:23:57.660Z,99369.88
2023-05-25T06:26:24.948Z,99377.03
2023-05-25T06:28:51.935Z,99369.38
2023-05-25T06:31:18.909Z,99381.22
2023-05-25T06:33:45.979Z,99376.34
2023-05-25T06:36:15.793Z,99355.88
2023-05-25T06:38:42.927Z,99386.19
2023-05-25T06:41:14.947Z,99354.72
2023-05-25T06:43:44.807Z,99394.38
2023-05-25T06:46:13.676Z,99378.22
2023-05-25T06:48:40.832Z,99393.16
2023-05-25T06:51:07.724Z,99394.69
2023-05-25T06:53:34.509Z,99401.47
2023-05-25T06:56:01.390Z,99393.66
2023-05-25T06:58:28.290Z,99390.66
2023-05-25T07:00:55.140Z,99400.09
2023-05-25T07:03:21.947Z,99369.81
2023-05-25T07:05:49.136Z,99403.31
2023-05-25T07:08:16.134Z,99409.25
2023-05-25T07:10:43.042Z,99398.25
2023-05-25T07:13:11.219Z,99401.69
2023-05-25T07:15:38.028Z,99414.81
2023-05-25T07:18:05.049Z,99411.19
2023-05-25T07:20:34.078Z,99398.09
2023-05-25T07:23:01.005Z,99419.09
2023-05-25T07:25:27.849Z,99375.97
2023-05-25T07:27:55.256Z,99429.94
2023-05-25T07:30:22.194Z,99430.69
2023-05-25T07:32:49.040Z,99427.16
2023-05-25T07:35:15.980Z,99430.19
2023-05-25T07:37:42.787Z,99437.72
2023-05-25T07:40:10.670Z,99437.72
2023-05-25T07:42:37.568Z,99439.53
2023-05-25T07:45:04.915Z,99435.22
2023-05-25T07:47:31.920Z,99422.28
2023-05-25T07:49:58.944Z,99419.56
2023-05-25T07:52:25.886Z,99439.84
2023-05-25T07:54:52.937Z,99431.94
2023-05-25T07:57:19.869Z,99435.88
2023-05-25T07:59:46.769Z,99429.75
2023-05-25T08:02:13.586Z,99435.63
2023-05-25T08:04:40.987Z,99427.44
2023-05-25T08:07:07.945Z,99417.03
2023-05-25T08:09:34.929Z,99428.13
2023-05-25T08:12:23.877Z,99411.81
2023-05-25T08:14:48.563Z,99419.94
2023-05-25T08:17:15.398Z,99412.22
2023-05-25T08:19:42.332Z,99418.66
2023-05-25T08:22:09.185Z,99429.56
2023-05-25T08:24:36.000Z,99418.81
2023-05-25T08:27:03.533Z,99419.47
2023-05-25T08:29:31.015Z,99415.16
2023-05-25T08:31:57.853Z,99417.44
2023-05-25T08:34:24.779Z,99412.22
2023-05-25T08:36:51.590Z,99422.16
2023-05-25T08:39:18.838Z,99417.69
2023-05-25T08:41:45.778Z,99422.25
2023-05-25T08:44:14.551Z,99407.91
2023-05-25T08:46:42.181Z,99410.97
2023-05-25T08:49:11.823Z,99414.16
2023-05-25T08:51:52.471Z,99402.03
2023-05-25T08:54:34.833Z,99411.00
2023-05-25T08:57:21.206Z,99417.53
2023-05-25T09:00:14.256Z,99407.94
2023-05-25T09:03:08.993Z,99388.44
2023-05-25T09:05:37.951Z,99414.56
2023-05-25T09:08:10.308Z,99415.78
2023-05-25T09:10:38.502Z,99406.13
2023-05-25T09:13:19.776Z,99411.81
2023-05-25T09:15:49.237Z,99413.22
2023-05-25T09:18:16.221Z,99412.31
2023-05-25T09:20:46.174Z,99400.47
2023-05-25T09:23:15.084Z,99425.22
2023-05-25T09:25:42.278Z,99424.97
2023-05-25T09:28:25.329Z,99422.91
2023-05-25T09:30:53.757Z,99425.88
2023-05-25T09:33:21.091Z,99422.34
2023-05-25T09:35:48.503Z,99409.28
2023-05-25T09:38:16.874Z,99411.41
2023-05-25T09:40:45.282Z,99415.94
2023-05-25T09:43:19.687Z,99406.22
2023-05-25T09:45:55.061Z,99421.88
2023-05-25T09:48:23.060Z,99420.19
2023-05-25T09:50:51.406Z,99416.25
2023-05-25T09:53:18.666Z,99429.75
2023-05-25T09:55:53.354Z,99417.09
2023-05-25T09:58:24.259Z,99415.88
2023-05-25T10:00:56.111Z,99412.97
2023-05-25T10:03:23.124Z,99416.13
2023-05-25T10:05:50.377Z,99407.09
2023-05-25T10:08:21.740Z,99405.13
2023-05-25T10:10:50.176Z,99384.28
2023-05-25T10:13:24.477Z,99420.13
2023-05-25T10:15:54.451Z,99418.13
2023-05-25T10:18:28.645Z,99410.06
2023-05-25T10:21:04.619Z,99393.84
2023-05-25T10:23:41.866Z,99408.88
2023-05-25T10:26:10.010Z,99412.13
2023-05-25T10:28:38.457Z,99412.41
2023-05-25T10:31:07.047Z,99403.53
2023-05-25T10:33:34.400Z,99410.56
2023-05-25T10:36:10.594Z,99418.09
2023-05-25T10:38:40.562Z,99413.47
2023-05-25T10:41:11.136Z,99414.72
2023-05-25T10:43:39.630Z,99403.63
2023-05-25T10:46:07.526Z,99407.28
2023-05-25T10:48:38.957Z,99404.78
2023-05-25T10:51:11.793Z,99406.03
2023-05-25T10:53:39.190Z,99402.34
2023-05-25T10:56:09.898Z,99409.06
2023-05-25T10:58:43.788Z,99404.66
2023-05-25T11:01:15.816Z,99411.56
2023-05-25T11:03:51.273Z,99406.94
2023-05-25T11:06:21.535Z,99414.28
2023-05-25T11:08:51.413Z,99410.28
2023-05-25T11:11:18.263Z,99403.97
2023-05-25T11:13:47.167Z,99406.25
2023-05-25T11:16:17.974Z,99407.44
2023-05-25T11:18:57.479Z,99405.03
2023-05-25T11:21:27.399Z,99406.50
2023-05-25T11:24:04.211Z,99414.84
2023-05-25T11:26:33.574Z,99409.38
2023-05-25T11:29:12.370Z,99403.72
2023-05-25T11:31:43.286Z,99398.63
2023-05-25T11:34:12.285Z,99395.16
2023-05-25T11:36:39.653Z,99396.28
2023-05-25T11:39:17.254Z,99383.75
2023-05-25T11:41:57.875Z,99390.59
2023-05-25T11:44:33.803Z,99393.97
2023-05-25T11:47:08.945Z,99393.97
2023-05-25T11:49:41.815Z,99395.38
2023-05-25T11:52:09.651Z,99393.50
2023-05-25T11:54:40.129Z,99391.59
2023-05-25T11:57:27.336Z,99384.69
2023-05-25T11:59:57.223Z,99384.22
2023-05-25T12:02:24.645Z,99399.31
2023-05-25T12:05:01.443Z,99379.97
2023-05-25T12:07:29.832Z,99377.59
2023-05-25T12:10:11.773Z,99372.59
2023-05-25T12:12:52.199Z,99379.06
2023-05-25T12:15:24.581Z,99364.75
2023-05-25T12:17:53.625Z,99381.16
2023-05-25T12:20:20.846Z,99376.28
2023-05-25T12:22:48.610Z,99377.25
2023-05-25T12:25:21.144Z,99386.56
2023-05-25T12:27:48.032Z,99376.88
2023-05-25T12:30:14.893Z,99370.09
2023-05-25T12:33:04.959Z,99373.69
2023-05-25T12:35:47.978Z,99373.91
2023-05-25T12:38:21.433Z,99374.28
2023-05-25T12:40:48.468Z,99377.75
2023-05-25T12:43:16.906Z,99376.31
2023-05-25T12:45:44.036Z,99361.03
2023-05-25T12:48:11.934Z,99374.19
2023-05-25T12:50:38.963Z,99357.47
2023-05-25T12:53:06.171Z,99376.22
2023-05-25T12:55:35.908Z,99369.88
2023-05-25T12:58:05.939Z,99379.19
2023-05-25T13:00:37.262Z,99371.06
2023-05-25T13:03:08.909Z,99370.81
2023-05-25T13:05:38.036Z,99377.78
2023-05-25T13:08:06.650Z,99366.75
2023-05-25T13:10:34.754Z,99371.06
2023-05-25T13:13:02.073Z,99364.84
2023-05-25T13:15:29.147Z,99373.84
2023-05-25T13:17:58.476Z,99366.66
2023-05-25T13:20:27.010Z,99365.34
2023-05-25T13:22:55.825Z,99365.34
2023-05-25T13:25:23.120Z,99368.69
2023-05-25T13:27:51.930Z,99356.41
2023-05-25T13:30:21.424Z,99360.56
2023-05-25T13:32:51.071Z,99352.69
2023-05-25T13:35:23.352Z,99355.56
2023-05-25T13:37:51.249Z,99355.06
2023-05-25T13:40:19.020Z,99359.25
2023-05-25T13:42:46.120Z,99361.50
2023-05-25T13:45:13.904Z,99362.22
2023-05-25T13:47:43.313Z,99361.50
2023-05-25T13:50:11.137Z,99363.28
2023-05-25T13:52:37.961Z,99364.97
2023-05-25T13:55:05.415Z,99360.56
2023-05-25T13:57:32.355Z,99356.13
2023-05-25T13:59:59.163Z,99355.78
2023-05-25T14:02:26.180Z,99341.66
2023-05-25T14:04:53.058Z,99339.28
2023-05-25T14:07:19.891Z,99344.03
2023-05-25T14:09:46.765Z,99348.22
2023-05-25T14:12:14.339Z,99346.19
2023-05-25T14:14:41.338Z,99342.81
2023-05-25T14:17:08.184Z,99354.53
2023-05-25T14:19:35.357Z,99334.56
2023-05-25T14:22:12.310Z,99341.59
2023-05-25T14:24:39.946Z,99343.84
2023-05-25T14:27:09.473Z,99344.66
2023-05-25T14:29:36.418Z,99349.66
2023-05-25T14:32:03.392Z,99353.16
2023-05-25T14:34:30.366Z,99348.72
2023-05-25T14:36:57.222Z,99337.69
2023-05-25T14:39:24.017Z,99346.75
2023-05-25T14:41:50.852Z,99342.06
2023-05-25T14:44:17.746Z,99344.66
2023-05-25T14:46:44.714Z,99344.44
2023-05-25T14:49:13.493Z,99351.94
2023-05-25T14:51:40.419Z,99356.13
2023-05-25T14:54:07.790Z,99313.25
2023-05-25T14:56:35.081Z,99337.84
2023-05-25T14:59:02.177Z,99350.56
2023-05-25T15:01:31.633Z,99331.19
2023-05-25T15:03:58.657Z,99353.88
2023-05-25T15:06:25.561Z,99353.41
2023-05-25T15:08:52.403Z,99340.03
2023-05-25T15:11:19.309Z,99328.19
2023-05-25T15:13:47.026Z,99349.84
2023-05-25T15:16:14.887Z,99349.09
2023-05-25T15:18:41.993Z,99352.94
2023-05-25T15:21:09.148Z,99352.69
2023-05-25T15:23:36.557Z,99328.44
2023-05-25T15:26:04.534Z,99341.53
2023-05-25T15:28:31.774Z,99332.56
2023-05-25T15:31:01.577Z,99330.75
2023-05-25T15:33:48.558Z,99308.91
2023-05-25T15:36:18.957Z,99339.81
2023-05-25T15:38:49.250Z,99333.47
2023-05-25T15:41:17.230Z,99327.81
2023-05-25T15:43:54.355Z,99325.50
2023-05-25T15:46:21.581Z,99316.78
2023-05-25T15:48:48.553Z,99336.69
2023-05-25T15:51:15.691Z,99330.56
2023-05-25T15:53:42.647Z,99308.31
2023-05-25T15:56:09.571Z,99330.28
2023-05-25T15:58:36.426Z,99325.03
2023-05-25T16:01:03.581Z,99329.22
2023-05-25T16:03:30.501Z,99323.69
2023-05-25T16:05:57.512Z,99334.66
2023-05-25T16:08:24.346Z,99332.88
2023-05-25T16:10:51.261Z,99328.41
2023-05-25T16:13:18.031Z,99335.09
2023-05-25T16:15:45.076Z,99329.19
2023-05-25T16:18:12.182Z,99332.97
2023-05-25T16:20:39.146Z,99333.53
2023-05-25T16:23:06.446Z,99332.31
2023-05-25T16:25:33.284Z,99323.00
2023-05-25T16:28:00.229Z,99342.47
2023-05-25T16:30:27.066Z,99329.41
2023-05-25T16:32:54.043Z,99336.09
2023-05-25T16:35:21.358Z,99325.53
2023-05-25T16:37:48.248Z,99334.16
2023-05-25T16:40:15.127Z,99331.53
2023-05-25T16:42:42.013Z,99336.25
2023-05-25T16:45:09.454Z,99326.41
2023-05-25T16:47:36.305Z,99325.72
2023-05-25T16:50:03.429Z,99322.41
2023-05-25T16:52:30.295Z,99324.31
2023-05-25T16:54:59.029Z,99322.25
2023-05-25T16:57:26.089Z,99313.38
2023-05-25T16:59:53.835Z,99300.31
2023-05-25T17:02:20.804Z,99322.13
2023-05-25T17:04:47.679Z,99318.94
2023-05-25T17:07:14.522Z,99320.63
2023-05-25T17:09:41.300Z,99326.69
2023-05-25T17:12:08.494Z,99319.06
2023-05-25T17:14:35.324Z,99324.75
2023-05-25T17:17:02.264Z,99320.56
2023-05-25T17:19:29.102Z,99319.75
2023-05-25T17:21:56.373Z,99325.13
2023-05-25T17:24:23.211Z,99326.13
2023-05-25T17:26:51.584Z,99322.91
2023-05-25T17:29:18.549Z,99280.47
2023-05-25T17:31:47.068Z,99323.06
2023-05-25T17:34:16.093Z,99326.41
2023-05-25T17:36:43.222Z,99321.41
2023-05-25T17:39:10.121Z,99329.75
2023-05-25T17:41:37.086Z,99324.47
2023-05-25T17:44:04.584Z,99330.84
2023-05-25T17:46:32.815Z,99326.66
2023-05-25T17:49:00.421Z,99334.44
2023-05-25T17:51:28.175Z,99338.88
2023-05-25T17:53:55.424Z,99339.84
2023-05-25T17:56:24.047Z,99340.66
2023-05-25T17:58:50.894Z,99340.66
2023-05-25T18:01:17.847Z,99345.28
2023-05-25T18:03:44.812Z,99334.56
2023-05-25T18:06:11.696Z,99349.97
2023-05-25T18:08:38.518Z,99348.97
2023-05-25T18:11:05.644Z,99348.13
2023-05-25T18:13:32.506Z,99350.75
2023-05-25T18:15:59.685Z,99343.88
2023-05-25T18:18:26.535Z,99349.28
2023-05-25T18:20:53.461Z,99360.94
2023-05-25T18:23:22.073Z,99360.50
2023-05-25T18:25:48.937Z,99363.38
2023-05-25T18:28:15.968Z,99355.56
2023-05-25T18:30:43.186Z,99357.75
2023-05-25T18:33:10.611Z,99365.88
2023-05-25T18:35:38.022Z,99354.81
2023-05-25T18:38:05.305Z,99367.63
2023-05-25T18:40:32.403Z,99362.31
2023-05-25T18:42:59.321Z,99361.72
2023-05-25T18:45:26.324Z,99356.97
2023-05-25T18:47:53.228Z,99363.19
2023-05-25T18:50:20.631Z,99367.50
2023-05-25T18:52:50.935Z,99374.91
2023-05-25T18:55:18.817Z,99365.84
2023-05-25T18:57:45.809Z,99372.06
2023-05-25T19:00:13.589Z,99363.38
2023-05-25T19:02:40.866Z,99377.63
2023-05-25T19:05:11.242Z,99371.44
2023-05-25T19:07:51.118Z,99379.72
2023-05-25T19:10:25.333Z,99368.53
2023-05-25T19:12:52.205Z,99388.34
2023-05-25T19:15:19.112Z,99381.41
2023-05-25T19:17:46.761Z,99388.97
2023-05-25T19:20:13.864Z,99390.16
2023-05-25T19:22:41.732Z,99396.16
2023-05-25T19:25:08.895Z,99390.66
2023-05-25T19:27:35.792Z,99401.91
2023-05-25T19:30:02.601Z,99397.63
2023-05-25T19:32:29.593Z,99404.78
2023-05-25T19:34:56.821Z,99408.56
2023-05-25T19:37:23.632Z,99395.44
2023-05-25T19:39:50.600Z,99403.66
2023-05-25T19:42:17.432Z,99415.03
2023-05-25T19:44:45.322Z,99412.16
2023-05-25T19:47:12.281Z,99411.81
2023-05-25T19:49:39.182Z,99412.41
2023-05-25T19:52:06.208Z,99412.63
2023-05-25T19:54:33.021Z,99414.56
2023-05-25T19:57:00.790Z,99403.06
2023-05-25T19:59:30.059Z,99405.91
2023-05-25T20:01:57.033Z,99416.91
2023-05-25T20:04:24.025Z,99413.56
2023-05-25T20:06:51.614Z,99420.50
2023-05-25T20:09:19.040Z,99418.13
2023-05-25T20:11:45.896Z,99426.00
2023-05-25T20:14:12.828Z,99422.88
2023-05-25T20:16:39.721Z,99435.06
2023-05-25T20:19:07.793Z,99433.84
2023-05-25T20:21:35.625Z,99438.25
2023-05-25T20:24:03.392Z,99437.44
2023-05-25T20:26:30.248Z,99439.56
2023-05-25T20:28:57.412Z,99445.75
2023-05-25T20:31:24.977Z,99443.91
2023-05-25T20:33:51.831Z,99450.19
2023-05-25T20:36:18.657Z,99443.00
2023-05-25T20:38:45.670Z,99445.84
2023-05-25T20:41:13.303Z,99451.97
2023-05-25T20:43:40.848Z,99461.44
2023-05-25T20:46:11.130Z,99444.63
2023-05-25T20:48:39.285Z,99466.16
2023-05-25T20:51:06.182Z,99462.53
2023-05-25T20:53:33.107Z,99470.41
2023-05-25T20:56:01.818Z,99466.59
2023-05-25T20:58:28.722Z,99464.09
2023-05-25T21:00:55.602Z,99471.31
2023-05-25T21:03:22.555Z,99468.44
2023-05-25T21:05:49.491Z,99467.47
2023-05-25T21:08:16.336Z,99470.59
2023-05-25T21:10:43.460Z,99473.94
2023-05-25T21:13:10.285Z,99471.03
2023-05-25T21:15:37.094Z,99469.56
2023-05-25T21:18:05.544Z,99463.09
2023-05-25T21:20:33.016Z,99471.91
2023-05-25T21:23:00.622Z,99468.78
2023-05-25T21:25:27.436Z,99466.03
2023-05-25T21:27:56.862Z,99464.28
2023-05-25T21:30:24.408Z,99474.41
2023-05-25T21:32:51.420Z,99464.13
2023-05-25T21:35:18.467Z,99457.56
2023-05-25T21:37:45.662Z,99468.16
2023-05-25T21:40:12.850Z,99454.75
2023-05-25T21:42:39.703Z,99483.16
2023-05-25T21:45:07.241Z,99479.91
2023-05-25T21:47:34.133Z,99487.22
2023-05-25T21:50:00.988Z,99488.28
2023-05-25T21:52:27.786Z,99492.03
2023-05-25T21:54:54.665Z,99499.78
2023-05-25T21:57:21.478Z,99485.13
2023-05-25T21:59:48.351Z,99494.56
2023-05-25T22:02:15.246Z,99500.44
2023-05-25T22:04:42.310Z,99489.63
2023-05-25T22:07:09.125Z,99499.88
2023-05-25T22:09:35.991Z,99499.59
2023-05-25T22:12:02.845Z,99508.47
2023-05-25T22:14:29.710Z,99502.06
2023-05-25T22:16:56.525Z,99507.00
2023-05-25T22:19:23.448Z,99508.78
2023-05-25T22:21:50.402Z,99496.31
2023-05-25T22:24:17.265Z,99508.38
2023-05-25T22:26:44.302Z,99509.81
2023-05-25T22:29:11.907Z,99513.25
2023-05-25T22:31:38.891Z,99483.13
2023-05-25T22:34:05.859Z,99491.84
2023-05-25T22:36:32.651Z,99506.16
2023-05-25T22:38:59.511Z,99513.47
2023-05-25T22:41:26.540Z,99511.16
2023-05-25T22:43:53.441Z,99511.38
2023-05-25T22:46:20.896Z,99506.41
2023-05-25T22:48:47.839Z,99512.16
2023-05-25T22:51:14.681Z,99514.25
2023-05-25T22:53:41.639Z,99519.38
2023-05-25T22:56:08.580Z,99523.97
2023-05-25T22:58:35.372Z,99521.56
2023-05-25T23:01:02.194Z,99517.66
2023-05-25T23:03:29.946Z,99517.84
2023-05-25T23:05:56.975Z,99523.06
2023-05-25T23:08:23.754Z,99515.50
2023-05-25T23:10:50.637Z,99526.16
2023-05-25T23:13:19.097Z,99520.50
2023-05-25T23:15:47.492Z,99528.44
2023-05-25T23:18:14.522Z,99500.34
2023-05-25T23:20:41.826Z,99522.91
2023-05-25T23:23:08.775Z,99517.78
2023-05-25T23:25:36.310Z,99517.78
2023-05-25T23:28:03.133Z,99518.56
2023-05-25T23:30:29.954Z,99520.91
2023-05-25T23:32:56.769Z,99514.38
2023-05-25T23:35:23.727Z,99521.06
2023-05-25T23:37:51.928Z,99528.81
2023-05-25T23:40:18.927Z,99529.84
2023-05-25T23:42:45.942Z,99519.28
2023-05-25T23:45:13.541Z,99535.44
2023-05-25T23:47:40.672Z,99533.22
2023-05-25T23:50:07.934Z,99511.38
2023-05-25T23:52:34.958Z,99530.22
2023-05-25T23:55:01.936Z,99533.75
2023-05-25T23:57:28.729Z,99533.47
2023-05-25T23:59:55.681Z,99537.00
